Time;durP1;ratioP1;P1;durP2;ratioP2;P2;SDS_P1;SDS_P2;PMS_P1;PMS_P2;Temp;Humidity;BMP_temperature;BMP_pressure;BME280_temperature;BME280_humidity;BME280_pressure;Samples;Min_cycle;Max_cycle;Signal;HPM_P1;HPM_P2
2022/12/19 00:01:58;;;;;;;41.45;19.02;;;;;;;0.63;100.00;101782.13;5035998;28;20018;-65
2022/12/19 00:04:24;;;;;;;42.90;19.98;;;;;;;0.67;100.00;101779.03;5004109;28;20311;-65
2022/12/19 00:06:49;;;;;;;39.53;18.60;;;;;;;0.67;100.00;101769.66;5004341;28;20038;-68
2022/12/19 00:09:14;;;;;;;40.92;19.52;;;;;;;0.71;100.00;101769.88;5004115;28;20010;-68
2022/12/19 00:11:40;;;;;;;41.13;17.73;;;;;;;0.71;100.00;101760.53;5004017;28;20034;-68
2022/12/19 00:14:08;;;;;;;40.53;19.05;;;;;;;0.70;100.00;101758.75;5004228;28;20578;-68
2022/12/19 00:16:33;;;;;;;46.78;20.98;;;;;;;0.69;100.00;101752.69;5004188;28;20280;-68
2022/12/19 00:18:59;;;;;;;42.13;19.10;;;;;;;0.72;100.00;101757.19;5004171;28;20022;-69
2022/12/19 00:21:28;;;;;;;42.13;19.92;;;;;;;0.71;100.00;101755.41;5004059;28;20081;-68
2022/12/19 00:23:53;;;;;;;45.05;20.27;;;;;;;0.71;100.00;101763.09;5007824;28;20037;-69
2022/12/19 00:26:25;;;;;;;46.67;20.13;;;;;;;0.74;100.00;101754.72;5008043;28;20253;-68
2022/12/19 00:29:01;;;;;;;48.45;21.70;;;;;;;0.72;100.00;101746.03;5008115;28;20323;-69
2022/12/19 00:31:29;;;;;;;43.83;20.65;;;;;;;0.73;100.00;101742.72;5007996;28;20034;-68
2022/12/19 00:33:55;;;;;;;45.58;21.23;;;;;;;0.74;100.00;101744.47;5007916;28;20072;-68
2022/12/19 00:36:29;;;;;;;44.13;20.33;;;;;;;0.74;100.00;101730.00;5007826;28;20065;-64
2022/12/19 00:38:56;;;;;;;47.90;21.00;;;;;;;0.76;100.00;101727.53;5007922;28;20026;-65
2022/12/19 00:41:25;;;;;;;48.60;22.52;;;;;;;0.78;100.00;101734.59;5007729;28;20018;-65
2022/12/19 00:43:55;;;;;;;42.67;20.85;;;;;;;0.77;100.00;101719.97;5007815;28;20022;-64
2022/12/19 00:46:20;;;;;;;48.00;22.02;;;;;;;0.80;100.00;101737.28;5007566;28;20307;-64
2022/12/19 00:48:46;;;;;;;52.08;20.27;;;;;;;0.83;100.00;101722.13;5007691;28;20375;-64
2022/12/19 00:51:32;;;;;;;44.25;20.70;;;;;;;0.88;100.00;101718.22;5007533;28;20261;-64
2022/12/19 00:53:58;;;;;;;45.60;19.80;;;;;;;0.89;100.00;101726.81;5007488;28;20026;-64
2022/12/19 00:56:29;;;;;;;47.00;20.33;;;;;;;0.92;100.00;101714.22;5007531;28;20283;-65
2022/12/19 00:58:55;;;;;;;51.67;21.33;;;;;;;0.95;100.00;101709.31;5007597;28;20042;-64
2022/12/19 01:01:24;;;;;;;50.42;21.63;;;;;;;0.96;100.00;101700.88;5007524;28;20007;-64
2022/12/19 01:03:50;;;;;;;48.33;20.25;;;;;;;0.99;100.00;101691.72;5007382;28;20022;-64
2022/12/19 01:06:16;;;;;;;45.63;19.95;;;;;;;1.03;100.00;101693.72;5007717;28;20142;-64
2022/12/19 01:08:42;;;;;;;45.15;20.63;;;;;;;1.07;100.00;101712.81;5007342;28;20311;-65
2022/12/19 01:11:07;;;;;;;48.25;20.85;;;;;;;1.10;100.00;101710.50;5007574;28;20074;-64
2022/12/19 01:13:35;;;;;;;48.05;20.73;;;;;;;1.12;100.00;101711.50;5006040;28;20180;-64
2022/12/19 01:16:06;;;;;;;48.63;21.17;;;;;;;1.16;100.00;101699.78;5007862;28;20045;-64
2022/12/19 01:18:31;;;;;;;44.78;19.35;;;;;;;1.17;100.00;101702.50;5007127;28;20093;-65
2022/12/19 01:21:00;;;;;;;49.70;20.90;;;;;;;1.18;100.00;101695.66;5007221;28;20021;-64
2022/12/19 01:23:27;;;;;;;51.03;21.77;;;;;;;1.16;100.00;101695.56;5007012;28;20105;-64
2022/12/19 01:25:54;;;;;;;50.50;22.73;;;;;;;1.15;100.00;101678.34;5007397;28;20048;-64
2022/12/19 01:28:19;;;;;;;51.92;22.17;;;;;;;1.14;100.00;101667.97;5006754;28;20022;-64
2022/12/19 01:30:45;;;;;;;50.75;21.70;;;;;;;1.14;100.00;101666.28;5007029;28;20041;-64
2022/12/19 01:33:12;;;;;;;55.30;22.83;;;;;;;1.13;100.00;101667.09;5006542;28;20014;-64
2022/12/19 01:35:39;;;;;;;49.72;21.92;;;;;;;1.13;100.00;101669.66;5006284;28;20018;-64
2022/12/19 01:38:04;;;;;;;55.97;21.95;;;;;;;1.15;100.00;101677.47;5006912;28;20029;-68
2022/12/19 01:40:30;;;;;;;45.13;21.75;;;;;;;1.15;100.00;101673.22;5006869;28;20022;-69
2022/12/19 01:42:55;;;;;;;51.05;22.55;;;;;;;1.17;100.00;101679.38;5006812;28;20065;-69
2022/12/19 01:45:33;;;;;;;52.05;21.75;;;;;;;1.18;100.00;101672.56;5006358;28;20277;-68
2022/12/19 01:48:05;;;;;;;53.42;22.17;;;;;;;1.17;100.00;101671.69;5006666;28;20260;-68
2022/12/19 01:50:36;;;;;;;48.28;20.70;;;;;;;1.19;100.00;101675.25;5006480;28;20033;-68
2022/12/19 01:53:04;;;;;;;45.90;20.13;;;;;;;1.24;100.00;101683.28;5006499;28;20224;-69
2022/12/19 01:55:29;;;;;;;48.92;21.75;;;;;;;1.23;100.00;101673.78;5006608;28;20018;-69
2022/12/19 01:57:55;;;;;;;51.10;21.95;;;;;;;1.25;100.00;101668.78;5006446;28;20086;-68
2022/12/19 02:00:21;;;;;;;54.28;22.10;;;;;;;1.26;100.00;101666.34;5006618;28;20065;-68
2022/12/19 02:02:54;;;;;;;53.53;22.42;;;;;;;1.26;100.00;101657.72;5006407;28;20204;-68
2022/12/19 02:05:20;;;;;;;49.30;21.13;;;;;;;1.27;100.00;101659.53;5006326;28;20036;-68
2022/12/19 02:07:46;;;;;;;53.88;21.75;;;;;;;1.28;100.00;101658.75;5006374;28;20273;-69
2022/12/19 02:10:11;;;;;;;54.15;22.25;;;;;;;1.29;100.00;101655.38;5006001;28;20022;-69
2022/12/19 02:12:40;;;;;;;54.03;22.38;;;;;;;1.28;100.00;101648.47;5006016;28;20025;-69
2022/12/19 02:15:07;;;;;;;50.22;22.73;;;;;;;1.29;100.00;101648.59;5006088;28;20038;-69
2022/12/19 02:17:55;;;;;;;56.30;22.02;;;;;;;1.31;100.00;101641.00;5005919;28;20097;-69
2022/12/19 02:20:41;;;;;;;51.05;21.75;;;;;;;1.32;100.00;101629.97;5006018;28;20062;-69
2022/12/19 02:23:43;;;;;;;52.80;21.95;;;;;;;1.33;100.00;101632.66;5005912;28;20018;-69
2022/12/19 02:26:19;;;;;;;56.03;22.60;;;;;;;1.37;100.00;101626.03;5005842;28;20319;-69
2022/12/19 02:28:44;;;;;;;48.90;20.92;;;;;;;1.39;100.00;101627.03;5006008;28;20038;-69
2022/12/19 02:31:31;;;;;;;52.05;22.65;;;;;;;1.41;100.00;101619.47;5005748;28;20026;-69
2022/12/19 02:34:09;;;;;;;57.80;22.65;;;;;;;1.42;100.00;101611.88;5005928;28;20056;-69
2022/12/19 02:36:47;;;;;;;51.40;20.90;;;;;;;1.45;100.00;101621.47;5005895;28;20077;-69
2022/12/19 02:39:24;;;;;;;53.65;21.88;;;;;;;1.49;100.00;101608.97;5005681;28;20041;-69
2022/12/19 02:41:53;;;;;;;59.65;22.15;;;;;;;1.53;100.00;101610.97;5005804;28;20030;-69
2022/12/19 02:44:25;;;;;;;54.55;21.60;;;;;;;1.56;100.00;101600.94;5005497;28;20049;-69
2022/12/19 02:46:51;;;;;;;51.22;20.35;;;;;;;1.62;100.00;101599.56;5005510;28;20037;-64
2022/12/19 02:49:17;;;;;;;48.88;21.25;;;;;;;1.68;100.00;101594.88;5004208;28;20207;-64
2022/12/19 02:51:43;;;;;;;56.38;21.85;;;;;;;1.73;100.00;101590.97;5005357;28;20054;-64
2022/12/19 02:54:09;;;;;;;51.80;20.25;;;;;;;1.78;100.00;101589.59;5005152;28;20014;-64
2022/12/19 02:56:51;;;;;;;54.03;21.52;;;;;;;1.82;100.00;101589.03;5005278;28;20148;-64
2022/12/19 02:59:19;;;;;;;55.95;21.95;;;;;;;1.85;100.00;101585.78;5005151;28;20022;-64
2022/12/19 03:01:51;;;;;;;50.92;20.20;;;;;;;1.89;100.00;101580.97;5005368;28;20045;-64
2022/12/19 03:04:23;;;;;;;54.75;21.63;;;;;;;1.92;100.00;101573.47;5005279;28;20022;-64
2022/12/19 03:07:00;;;;;;;53.70;20.83;;;;;;;1.97;100.00;101583.19;5005532;28;20102;-64
2022/12/19 03:09:52;;;;;;;54.70;20.45;;;;;;;2.01;100.00;101580.06;5005051;28;20073;-64
2022/12/19 03:12:24;;;;;;;52.60;19.75;;;;;;;2.05;100.00;101577.78;5004996;28;20041;-64
2022/12/19 03:14:52;;;;;;;51.00;19.75;;;;;;;2.08;100.00;101583.16;5004963;28;20025;-64
2022/12/19 03:17:18;;;;;;;51.92;21.02;;;;;;;2.12;100.00;101578.25;5004639;28;20043;-65
2022/12/19 03:19:44;;;;;;;50.78;19.90;;;;;;;2.15;100.00;101581.91;4998906;28;20253;-64
2022/12/19 03:22:10;;;;;;;54.55;20.10;;;;;;;2.18;100.00;101584.69;5000984;28;20015;-64
2022/12/19 03:24:35;;;;;;;50.72;19.92;;;;;;;2.22;100.00;101576.41;5004918;28;20018;-64
2022/12/19 03:27:07;;;;;;;46.60;19.38;;;;;;;2.25;100.00;101576.63;5004559;28;20030;-64
2022/12/19 03:29:38;;;;;;;51.17;19.88;;;;;;;2.28;100.00;101569.91;5004611;28;20057;-64
2022/12/19 03:32:08;;;;;;;51.10;19.80;;;;;;;2.32;100.00;101571.88;5004396;28;20353;-64
2022/12/19 03:34:59;;;;;;;47.30;18.80;;;;;;;2.37;100.00;101570.53;5004717;28;20082;-64
2022/12/19 03:37:29;;;;;;;50.33;19.40;;;;;;;2.42;100.00;101570.06;5001330;28;20161;-64
2022/12/19 03:40:03;;;;;;;48.25;17.98;;;;;;;2.46;100.00;101563.44;5004446;28;20085;-64
2022/12/19 03:45:22;;;;;;;46.17;18.50;;;;;;;2.55;100.00;101560.59;5004198;28;20239;-64
2022/12/19 03:47:55;;;;;;;43.28;17.23;;;;;;;2.62;100.00;101565.34;5004314;28;20023;-69
2022/12/19 03:50:24;;;;;;;45.28;17.67;;;;;;;2.70;100.00;101555.59;5004298;28;20018;-69
2022/12/19 03:53:13;;;;;;;47.97;17.50;;;;;;;2.77;100.00;101561.25;5004584;28;20048;-70
2022/12/19 03:55:51;;;;;;;46.80;17.90;;;;;;;2.84;100.00;101556.50;5004356;28;20022;-69
2022/12/19 03:58:26;;;;;;;46.00;17.70;;;;;;;2.91;100.00;101548.41;5003570;28;20260;-69
2022/12/19 04:00:53;;;;;;;39.40;16.88;;;;;;;3.02;100.00;101549.13;5004264;28;20052;-69
2022/12/19 04:03:20;;;;;;;41.92;16.88;;;;;;;3.06;100.00;101551.09;5004066;28;20026;-69
2022/12/19 04:05:47;;;;;;;45.00;16.52;;;;;;;3.13;100.00;101543.88;5004319;28;20089;-69
2022/12/19 04:08:14;;;;;;;45.53;16.42;;;;;;;3.20;100.00;101546.84;5004115;28;20022;-69
2022/12/19 04:10:48;;;;;;;43.50;16.65;;;;;;;3.27;100.00;101542.19;5004095;28;20022;-69
2022/12/19 04:13:18;;;;;;;48.67;16.92;;;;;;;3.36;100.00;101547.06;5003873;28;20046;-69
2022/12/19 04:16:18;;;;;;;45.08;15.98;;;;;;;3.43;100.00;101546.66;5004305;28;20029;-69
2022/12/19 04:18:50;;;;;;;44.33;15.60;;;;;;;3.49;100.00;101538.44;4995410;28;20026;-64
2022/12/19 04:21:25;;;;;;;45.35;16.13;;;;;;;3.55;100.00;101525.91;5004001;28;20018;-64
2022/12/19 04:24:06;;;;;;;47.08;17.10;;;;;;;3.61;100.00;101534.03;5004199;28;20169;-64
2022/12/19 04:26:33;;;;;;;46.47;16.42;;;;;;;3.67;100.00;101533.53;5003994;28;20026;-64
2022/12/19 04:29:04;;;;;;;43.65;16.05;;;;;;;3.75;100.00;101528.84;5004113;28;20014;-64
2022/12/19 04:31:29;;;;;;;51.33;17.42;;;;;;;3.79;100.00;101525.66;5003776;28;20023;-64
2022/12/19 04:33:55;;;;;;;42.55;16.48;;;;;;;3.79;100.00;101530.81;5004064;28;20089;-64
2022/12/19 04:36:20;;;;;;;42.88;16.77;;;;;;;3.85;100.00;101523.44;5003886;28;20054;-64
2022/12/19 04:38:46;;;;;;;42.63;16.35;;;;;;;3.89;100.00;101525.44;5004121;28;20265;-64
2022/12/19 04:41:11;;;;;;;42.22;16.23;;;;;;;3.94;100.00;101517.97;5003863;28;20046;-64
2022/12/19 04:43:36;;;;;;;47.58;17.85;;;;;;;4.00;100.00;101521.81;5004073;28;20025;-64
2022/12/19 04:46:01;;;;;;;48.75;17.02;;;;;;;4.05;100.00;101524.69;5003599;28;20077;-64
2022/12/19 04:48:27;;;;;;;42.95;16.88;;;;;;;4.10;100.00;101524.94;5003837;28;20025;-69
2022/12/19 04:50:52;;;;;;;47.40;16.48;;;;;;;4.15;100.00;101518.41;5003827;28;20072;-70
2022/12/19 04:53:17;;;;;;;49.95;16.95;;;;;;;4.20;100.00;101517.00;5003874;28;20029;-69
2022/12/19 04:55:43;;;;;;;53.03;18.70;;;;;;;4.21;100.00;101518.75;5003812;28;20015;-69
2022/12/19 04:58:08;;;;;;;48.35;17.20;;;;;;;4.23;100.00;101514.59;5003642;28;20180;-70
2022/12/19 05:00:33;;;;;;;47.53;17.58;;;;;;;4.29;100.00;101517.53;5003827;28;20073;-69
2022/12/19 05:02:59;;;;;;;50.20;17.90;;;;;;;4.34;100.00;101512.66;5003785;28;20022;-69
2022/12/19 05:05:24;;;;;;;53.85;19.23;;;;;;;4.39;100.00;101529.31;5003711;28;20022;-70
2022/12/19 05:07:50;;;;;;;54.72;18.05;;;;;;;4.43;100.00;101525.19;5004077;28;20022;-70
2022/12/19 05:10:16;;;;;;;53.47;19.25;;;;;;;4.47;100.00;101511.69;5007422;28;20011;-69
2022/12/19 05:12:41;;;;;;;55.38;18.55;;;;;;;4.53;100.00;101506.88;5007325;28;20291;-70
2022/12/19 05:15:07;;;;;;;55.38;18.75;;;;;;;4.53;100.00;101517.19;5007231;28;20092;-69
2022/12/19 05:17:33;;;;;;;61.67;19.45;;;;;;;4.56;100.00;101514.78;5007148;28;20037;-65
2022/12/19 05:19:58;;;;;;;65.13;20.65;;;;;;;4.59;100.00;101507.25;5007222;28;20041;-64
2022/12/19 05:22:26;;;;;;;60.40;20.13;;;;;;;4.60;100.00;101511.59;5007350;28;20010;-64
2022/12/19 05:24:51;;;;;;;71.90;20.33;;;;;;;4.63;100.00;101501.44;5007310;28;20022;-64
2022/12/19 05:27:16;;;;;;;64.70;21.33;;;;;;;4.69;100.00;101507.00;5005715;28;20026;-64
2022/12/19 05:29:41;;;;;;;64.85;21.00;;;;;;;4.73;100.00;101507.16;5007044;28;20022;-64
2022/12/19 05:32:07;;;;;;;66.50;20.75;;;;;;;4.75;100.00;101501.31;5006713;28;20126;-64
2022/12/19 05:34:32;;;;;;;60.58;19.95;;;;;;;4.81;100.00;101513.69;5006997;28;20026;-64
2022/12/19 05:36:57;;;;;;;54.75;19.77;;;;;;;4.84;100.00;101504.41;5007113;28;20026;-65
2022/12/19 05:39:23;;;;;;;64.25;20.17;;;;;;;4.86;100.00;101510.53;5006797;28;20275;-64
2022/12/19 05:41:48;;;;;;;60.15;19.35;;;;;;;4.87;100.00;101509.72;5006933;28;20025;-64
2022/12/19 05:44:13;;;;;;;55.00;18.67;;;;;;;4.90;100.00;101498.69;5006701;28;20296;-65
2022/12/19 05:46:39;;;;;;;45.13;17.23;;;;;;;4.97;100.00;101499.94;5006801;28;20018;-70
2022/12/19 05:49:04;;;;;;;47.17;16.85;;;;;;;4.98;100.00;101497.44;5006558;28;20025;-70
2022/12/19 05:51:30;;;;;;;42.53;15.38;;;;;;;5.00;100.00;101498.41;5006408;28;20221;-70
2022/12/19 05:53:55;;;;;;;41.75;15.57;;;;;;;5.03;100.00;101498.59;5006529;28;20053;-70
2022/12/19 05:56:22;;;;;;;36.65;14.82;;;;;;;5.05;100.00;101498.66;5006839;28;20026;-70
2022/12/19 05:58:47;;;;;;;37.42;14.05;;;;;;;5.08;100.00;101509.16;5006540;28;20265;-70
2022/12/19 06:01:19;;;;;;;34.17;14.13;;;;;;;5.13;100.00;101496.53;5006373;28;20014;-70
2022/12/19 06:03:44;;;;;;;33.78;13.10;;;;;;;5.17;100.00;101506.22;5006365;28;20296;-70
2022/12/19 06:06:14;;;;;;;34.05;13.02;;;;;;;5.21;100.00;101500.41;5006554;28;20010;-70
2022/12/19 06:08:40;;;;;;;29.67;12.80;;;;;;;5.21;100.00;101506.50;5006592;28;20019;-70
2022/12/19 06:11:07;;;;;;;29.63;12.50;;;;;;;5.27;100.00;101493.03;5006257;28;20335;-69
2022/12/19 06:13:33;;;;;;;28.25;12.40;;;;;;;5.30;100.00;101500.94;5006202;28;20030;-70
2022/12/19 06:16:00;;;;;;;28.92;12.70;;;;;;;5.35;100.00;101511.53;5006345;28;20025;-70
2022/12/19 06:18:27;;;;;;;25.92;11.80;;;;;;;5.34;100.00;101507.16;5005918;28;20037;-70
2022/12/19 06:21:04;;;;;;;23.02;10.57;;;;;;;5.37;100.00;101494.41;5005557;28;20019;-70
2022/12/19 06:23:33;;;;;;;23.92;10.93;;;;;;;5.39;100.00;101501.44;5005933;28;20260;-70
2022/12/19 06:26:00;;;;;;;22.45;10.88;;;;;;;5.43;100.00;101502.53;5005974;28;20236;-69
2022/12/19 06:28:27;;;;;;;20.25;10.43;;;;;;;5.46;100.00;101501.78;5005726;28;20014;-70
2022/12/19 06:30:55;;;;;;;22.17;10.45;;;;;;;5.48;100.00;101513.09;5037488;28;20288;-70
2022/12/19 06:33:20;;;;;;;19.58;9.77;;;;;;;5.50;100.00;101498.56;5005787;28;20089;-70
2022/12/19 06:35:45;;;;;;;19.35;9.55;;;;;;;5.54;100.00;101510.84;5005760;28;20025;-69
2022/12/19 06:38:11;;;;;;;19.85;9.98;;;;;;;5.56;100.00;101510.13;5005598;28;20045;-70
2022/12/19 06:43:25;;;;;;;18.70;9.95;;;;;;;5.60;100.00;101511.19;5005542;28;20036;-70
2022/12/19 06:45:51;;;;;;;18.35;9.25;;;;;;;5.61;100.00;101528.47;5005488;28;20249;-70
2022/12/19 06:48:16;;;;;;;15.45;9.00;;;;;;;5.66;100.00;101510.63;5005484;28;20093;-70
2022/12/19 06:50:41;;;;;;;16.45;9.07;;;;;;;5.68;100.00;101520.25;5005526;28;20064;-69
2022/12/19 06:53:07;;;;;;;14.35;8.40;;;;;;;5.69;100.00;101522.03;5005431;28;20317;-70
2022/12/19 06:55:35;;;;;;;17.35;9.25;;;;;;;5.70;100.00;101518.63;5005435;28;20065;-70
2022/12/19 06:58:00;;;;;;;16.13;8.13;;;;;;;5.74;100.00;101520.56;5005505;28;20018;-70
2022/12/19 07:00:26;;;;;;;16.75;9.05;;;;;;;5.75;100.00;101521.47;5004121;28;20022;-70
2022/12/19 07:02:52;;;;;;;16.35;8.80;;;;;;;5.75;100.00;101512.03;5005371;28;20034;-70
2022/12/19 07:05:17;;;;;;;15.45;8.63;;;;;;;5.74;100.00;101518.00;5005431;28;20030;-68
2022/12/19 07:07:43;;;;;;;15.57;8.20;;;;;;;5.75;100.00;101522.34;5005117;28;20021;-70
2022/12/19 07:10:09;;;;;;;17.65;8.85;;;;;;;5.78;100.00;101520.75;5005005;28;20230;-69
2022/12/19 07:12:35;;;;;;;16.15;7.78;;;;;;;5.78;100.00;101511.31;5004949;28;20050;-69
2022/12/19 07:15:00;;;;;;;15.15;7.78;;;;;;;5.81;100.00;101515.72;5005246;28;20018;-69
2022/12/19 07:17:27;;;;;;;13.55;8.00;;;;;;;5.82;100.00;101517.50;5005075;28;20261;-69
2022/12/19 07:19:56;;;;;;;17.20;8.60;;;;;;;5.83;100.00;101516.72;5005036;28;20026;-70
2022/12/19 07:22:22;;;;;;;14.57;7.75;;;;;;;5.83;100.00;101517.59;5005030;28;20010;-70
2022/12/19 07:24:47;;;;;;;13.75;8.02;;;;;;;5.85;100.00;101520.25;5004904;28;20022;-69
2022/12/19 07:27:13;;;;;;;14.20;7.65;;;;;;;5.86;100.00;101515.16;5004833;28;20052;-69
2022/12/19 07:29:38;;;;;;;13.85;7.93;;;;;;;5.87;100.00;101511.78;5005059;28;20070;-70
2022/12/19 07:32:03;;;;;;;11.20;7.22;;;;;;;5.86;100.00;101516.88;5004803;28;20095;-70
2022/12/19 07:34:29;;;;;;;14.20;7.57;;;;;;;5.85;100.00;101510.81;5004705;28;20053;-70
2022/12/19 07:36:54;;;;;;;12.75;7.43;;;;;;;5.87;100.00;101521.25;5004816;28;20018;-69
2022/12/19 07:39:20;;;;;;;12.23;7.28;;;;;;;5.89;100.00;101520.53;5004514;28;20043;-69
2022/12/19 07:41:46;;;;;;;12.88;7.13;;;;;;;5.92;100.00;101514.59;5004524;28;20078;-70
2022/12/19 07:44:12;;;;;;;11.82;7.22;;;;;;;5.93;100.00;101521.56;5004441;28;20014;-69
2022/12/19 07:46:37;;;;;;;11.63;7.22;;;;;;;5.92;100.00;101520.69;5004393;28;20038;-69
2022/12/19 07:49:03;;;;;;;12.48;7.40;;;;;;;5.96;100.00;101526.03;5004455;28;20296;-70
2022/12/19 07:51:28;;;;;;;13.00;6.85;;;;;;;5.98;100.00;101525.34;5004506;28;20030;-70
2022/12/19 07:53:53;;;;;;;11.45;6.93;;;;;;;5.98;100.00;101535.69;5004508;28;20029;-69
2022/12/19 07:56:19;;;;;;;10.73;6.47;;;;;;;6.00;100.00;101535.75;5004424;28;20081;-70
2022/12/19 07:58:44;;;;;;;11.57;6.97;;;;;;;6.03;100.00;101543.69;5004408;28;20022;-69
2022/12/19 08:01:11;;;;;;;10.75;6.65;;;;;;;6.07;100.00;101545.63;5004439;28;20017;-70
2022/12/19 08:03:36;;;;;;;12.27;7.28;;;;;;;6.08;100.00;101537.94;5004412;28;20034;-69
2022/12/19 08:06:04;;;;;;;10.55;6.82;;;;;;;6.08;100.00;101545.72;5004256;28;20018;-70
2022/12/19 08:08:30;;;;;;;11.35;6.32;;;;;;;6.07;100.00;101546.50;5004328;28;20018;-69
2022/12/19 08:11:08;;;;;;;11.75;7.18;;;;;;;6.07;100.00;101543.91;5004156;28;20118;-69
2022/12/19 08:13:33;;;;;;;12.60;6.53;;;;;;;6.10;100.00;101548.38;5004514;28;20105;-70
2022/12/19 08:15:59;;;;;;;10.48;6.22;;;;;;;6.11;100.00;101557.91;5004576;28;20153;-70
2022/12/19 08:18:25;;;;;;;9.57;6.35;;;;;;;6.13;100.00;101558.00;5004083;28;20026;-64
2022/12/19 08:20:50;;;;;;;10.60;6.20;;;;;;;6.17;100.00;101562.50;5004113;28;20276;-64
2022/12/19 08:23:15;;;;;;;11.60;6.13;;;;;;;6.19;100.00;101546.25;5004106;28;20026;-64
2022/12/19 08:25:40;;;;;;;11.65;6.40;;;;;;;6.21;100.00;101552.44;5004198;28;20165;-64
2022/12/19 08:28:06;;;;;;;11.30;6.45;;;;;;;6.22;100.00;101541.25;5003983;28;20269;-65
2022/12/19 08:30:31;;;;;;;9.98;6.15;;;;;;;6.28;100.00;101539.81;5004120;28;20019;-64
2022/12/19 08:32:56;;;;;;;11.27;6.35;;;;;;;6.29;100.00;101534.69;5004097;28;20158;-64
2022/12/19 08:35:22;;;;;;;10.38;6.30;;;;;;;6.30;100.00;101536.50;5003930;28;20041;-64
2022/12/19 08:37:47;;;;;;;10.80;6.50;;;;;;;6.28;100.00;101540.69;5004147;28;20046;-64
2022/12/19 08:40:12;;;;;;;13.10;7.05;;;;;;;6.31;100.00;101546.00;5003878;28;20026;-64
2022/12/19 08:42:37;;;;;;;11.40;6.30;;;;;;;6.32;100.00;101552.09;5004091;28;20021;-64
2022/12/19 08:45:03;;;;;;;11.65;6.25;;;;;;;6.34;100.00;101563.41;5007710;28;20045;-64
2022/12/19 08:47:28;;;;;;;12.13;6.50;;;;;;;6.37;100.00;101546.34;5008094;28;20022;-64
2022/12/19 08:49:54;;;;;;;11.07;6.28;;;;;;;6.40;100.00;101554.28;5008213;28;20022;-64
2022/12/19 08:52:19;;;;;;;10.43;6.10;;;;;;;6.43;100.00;101546.66;5007875;28;20026;-65
2022/12/19 08:54:44;;;;;;;9.30;5.85;;;;;;;6.47;100.00;101539.06;5007727;28;20018;-64
2022/12/19 08:57:10;;;;;;;11.05;7.25;;;;;;;6.56;100.00;101549.88;5007612;28;20014;-64
2022/12/19 08:59:35;;;;;;;9.68;6.18;;;;;;;6.59;100.00;101539.69;5007906;28;20021;-64
2022/12/19 09:02:00;;;;;;;9.23;5.70;;;;;;;6.60;100.00;101551.81;5007553;28;20023;-64
2022/12/19 09:04:27;;;;;;;9.05;5.82;;;;;;;6.64;100.00;101550.28;5006351;28;20045;-64
2022/12/19 09:06:52;;;;;;;9.45;6.10;;;;;;;6.66;100.00;101559.88;5007407;28;20029;-64
2022/12/19 09:09:17;;;;;;;9.68;5.90;;;;;;;6.69;100.00;101554.88;5007426;28;20121;-65
2022/12/19 09:11:42;;;;;;;10.23;5.78;;;;;;;6.71;100.00;101552.38;5007300;28;20261;-64
2022/12/19 09:14:08;;;;;;;10.15;6.05;;;;;;;6.73;100.00;101561.97;5007536;28;20018;-64
2022/12/19 09:16:33;;;;;;;10.38;6.03;;;;;;;6.74;100.00;101558.56;5007186;28;20201;-70
2022/12/19 09:18:58;;;;;;;9.27;5.93;;;;;;;6.77;100.00;101557.84;5007221;28;20022;-70
2022/12/19 09:21:26;;;;;;;10.38;6.25;;;;;;;6.78;100.00;101570.88;5007094;28;20275;-70
2022/12/19 09:23:54;;;;;;;10.07;6.47;;;;;;;6.81;100.00;101564.97;5007142;28;20030;-70
2022/12/19 09:26:21;;;;;;;9.10;5.65;;;;;;;6.82;100.00;101569.31;5006846;28;20072;-70
2022/12/19 09:28:47;;;;;;;9.68;5.95;;;;;;;6.86;100.00;101567.78;5006894;28;20038;-70
2022/12/19 09:31:16;;;;;;;9.15;5.85;;;;;;;6.87;100.00;101572.16;5006913;28;20265;-70
2022/12/19 09:33:42;;;;;;;10.32;6.05;;;;;;;6.88;100.00;101571.31;5007003;28;20288;-70
2022/12/19 09:36:11;;;;;;;9.88;6.13;;;;;;;6.88;100.00;101569.66;5006968;28;20129;-70
2022/12/19 09:38:37;;;;;;;9.95;5.85;;;;;;;6.89;100.00;101568.81;5006928;28;20026;-70
2022/12/19 09:41:20;;;;;;;9.82;5.78;;;;;;;6.92;100.00;101561.22;5006831;28;20014;-69
2022/12/19 09:44:07;;;;;;;9.57;5.68;;;;;;;6.94;100.00;101563.88;5006642;28;20042;-70
2022/12/19 09:46:45;;;;;;;8.45;5.32;;;;;;;6.97;100.00;101571.81;5007093;28;20041;-70
2022/12/19 09:49:15;;;;;;;8.95;5.75;;;;;;;6.97;100.00;101553.69;5006721;28;20022;-70
2022/12/19 09:52:16;;;;;;;11.48;6.10;;;;;;;7.00;100.00;101560.72;5006812;28;20082;-70
2022/12/19 09:54:51;;;;;;;12.98;6.25;;;;;;;7.02;100.00;101562.53;4999798;28;20046;-70
2022/12/19 09:57:23;;;;;;;10.52;5.82;;;;;;;7.06;100.00;101567.06;5006610;28;20283;-70
2022/12/19 09:59:54;;;;;;;8.88;5.78;;;;;;;7.09;100.00;101559.44;5006651;28;20019;-70
2022/12/19 10:02:27;;;;;;;9.00;5.57;;;;;;;7.14;100.00;101576.13;5006746;28;20207;-70
2022/12/19 10:05:01;;;;;;;9.85;5.65;;;;;;;7.18;100.00;101573.69;5006813;28;20029;-70
2022/12/19 10:07:26;;;;;;;8.90;5.93;;;;;;;7.20;100.00;101580.72;5006054;28;20014;-70
2022/12/19 10:09:53;;;;;;;9.25;5.55;;;;;;;7.23;100.00;101575.69;5006279;28;20280;-69
2022/12/19 10:12:32;;;;;;;8.63;5.45;;;;;;;7.26;100.00;101575.84;5005992;28;20045;-69
2022/12/19 10:15:05;;;;;;;9.15;5.47;;;;;;;7.28;100.00;101565.53;5006219;28;20085;-70
2022/12/19 10:17:51;;;;;;;10.40;5.53;;;;;;;7.28;100.00;101558.63;5006232;28;20025;-64
2022/12/19 10:20:47;;;;;;;9.77;5.57;;;;;;;7.32;100.00;101567.47;5005971;28;20253;-64
2022/12/19 10:23:41;;;;;;;10.27;5.60;;;;;;;7.36;100.00;101565.91;5003838;28;20065;-64
2022/12/19 10:26:13;;;;;;;9.77;5.60;;;;;;;7.38;100.00;101564.28;5005940;28;20065;-64
2022/12/19 10:28:41;;;;;;;10.95;5.85;;;;;;;7.39;100.00;101566.06;5006040;28;20025;-64
2022/12/19 10:31:17;;;;;;;9.60;5.85;;;;;;;7.43;100.00;101573.16;5005820;28;20029;-64
2022/12/19 10:33:48;;;;;;;10.85;5.55;;;;;;;7.44;100.00;101569.75;5005933;28;20037;-65
2022/12/19 10:36:14;;;;;;;10.55;5.70;;;;;;;7.44;100.00;101578.44;5005876;28;20022;-64
2022/12/19 10:38:50;;;;;;;9.63;5.38;;;;;;;7.45;100.00;101581.91;5005811;28;20094;-64
2022/12/19 10:41:22;;;;;;;9.20;5.57;;;;;;;7.45;100.00;101571.53;5005617;28;20018;-65
2022/12/19 10:44:01;;;;;;;8.85;5.45;;;;;;;7.48;100.00;101569.97;5005588;28;20054;-64
2022/12/19 10:46:46;;;;;;;8.83;5.37;;;;;;;7.47;100.00;101581.19;5004296;28;20037;-64
2022/12/19 10:49:16;;;;;;;9.15;5.85;;;;;;;7.48;100.00;101582.94;5005747;28;20277;-64
2022/12/19 10:51:53;;;;;;;8.02;5.32;;;;;;;7.47;100.00;101581.19;5005629;28;20185;-64
2022/12/19 10:54:18;;;;;;;9.60;5.43;;;;;;;7.45;100.00;101574.13;5005630;28;20040;-64
2022/12/19 10:56:43;;;;;;;8.10;5.40;;;;;;;7.44;100.00;101574.94;5005557;28;20035;-64
2022/12/19 10:59:20;;;;;;;10.27;6.05;;;;;;;7.44;100.00;101577.53;5005460;28;20332;-65
2022/12/19 11:01:47;;;;;;;9.50;5.70;;;;;;;7.41;100.00;101565.31;5005372;28;20022;-64
2022/12/19 11:04:25;;;;;;;10.48;5.97;;;;;;;7.41;100.00;101575.69;5005363;28;20018;-64
2022/12/19 11:07:03;;;;;;;9.20;5.70;;;;;;;7.39;100.00;101568.66;5004864;28;20125;-64
2022/12/19 11:09:29;;;;;;;9.18;5.07;;;;;;;7.38;100.00;101562.56;5005162;28;20018;-64
2022/12/19 11:11:59;;;;;;;9.50;5.30;;;;;;;7.38;100.00;101564.28;5004948;28;20201;-64
2022/12/19 11:14:27;;;;;;;9.85;5.85;;;;;;;7.36;100.00;101571.06;5005145;28;20018;-64
2022/12/19 11:16:52;;;;;;;10.68;5.22;;;;;;;7.35;100.00;101562.44;5005480;28;20034;-64
2022/12/19 11:19:21;;;;;;;8.20;5.43;;;;;;;7.36;100.00;101555.53;5005020;28;20167;-65
2022/12/19 11:21:47;;;;;;;11.35;6.22;;;;;;;7.35;100.00;101543.41;5005135;28;20030;-64
2022/12/19 11:24:24;;;;;;;9.35;5.53;;;;;;;7.34;100.00;101547.69;5005026;28;20018;-64
2022/12/19 11:26:51;;;;;;;10.95;5.75;;;;;;;7.35;100.00;101535.63;5003744;28;20053;-64
2022/12/19 11:29:36;;;;;;;10.77;5.53;;;;;;;7.36;100.00;101540.88;5004915;28;20088;-64